Terminal Aerodrome Forecast
Issued by NWS Newport/Morehead City, NC

Home | Current Version | Previous Version | Text Only | Print | Product List | Glossary Off
Versions: 1 2 3 4 5 6 7 8 9 10 11 12 13 14 15 16 17 18 19

000
FTUS42 KMHX 282321
TAFEWN
TAF
KEWN 282321Z 0100/0124 04011KT P6SM SCT060 BKN250
     FM010400 02007KT P6SM SCT015 BKN040
     FM010800 05005KT 5SM BR BKN015 OVC025
     FM011400 07007KT P6SM BKN025 OVC040
     FM011800 16006KT 5SM -RA BR OVC010=

USA.gov is the U.S. government's official web portal to all federal, state and local government web resources and services.